Terminal Aerodrome Forecast
Issued by NWS

Current Version | Previous Version | Graphics & Text | Print | Product List | Glossary On
Versions: 1 2 3 4 5 6 7 8 9 10 11 12 13 14
000
FTUS41 KRNK 200529
TAFLWB
TAF
KLWB 200529Z 2006/2106 VRB03KT 5SM BR SCT140
     FM200800 VRB03KT 2SM BR SCT200
      TEMPO 2010/2012 1/4SM FG OVC001
     FM201300 00000KT P6SM FEW250
     FM201600 27008KT P6SM FEW140=

USA.gov is the U.S. government's official web portal to all federal, state and local government web resources and services.